Airfield :
LOGIN :

Register | Disclaimer

   EN    FR    IT 

 










Legend :    VFR   Marginal VFR   IFR   Intensive IFR   Very Intensive IFR
Visi :
Ceiling :
>= 8 km
>= 3000ft
5 to 8 km
1000 to 3000 ft
1500m to 5 km
500 to 1000 ft
800 to 1500m
200 to 500 ft
< 800m
< 200 ft
Symbols :   Thunderstorms  Fog  Heavy snow  Heavy precipitations  Wind > 20 kt
SIGMETs :     Misc.  Thunderstorms  Icing  Turbulence  Mountain Waves  Volcanic Ashes







- Airport Elevation : 778 ft
- IATA code : BRQ


LKTB - Brno-Turany

CURRENT METAR :
  • 191330Z 01005KT 9999 SCT045 18/08 Q1021 NOSIG

EXPIRED METARs :
  • 191300Z 36004KT 330V040 9999 BKN045 19/09 Q1021 NOSIG
  • 191230Z 08005KT 040V140 9999 BKN047 19/10 Q1021 NOSIG
  • 191200Z VRB02KT 9999 SCT043 19/09 Q1021 NOSIG
  • 191148Z VRB02KT 9999 FEW043 19/10 Q1022 NOSIG
  • 191100Z VRB03KT 9999 FEW033 18/10 Q1022 NOSIG

TAF TAF LKTB
Valid from the 19 at 12:00 until the 20 at 18:00 UTC


191100Z 1912/2018 10005KT CAVOK
PROB30
TEMPO 1912/1916 8000 -SHRA SCT040TCU
BECMG 1920/1922 VRB02KT 3000 BR SCT005
TEMPO 2000/2007 1200 BR BKN003
BECMG 2008/2010 32008KT 9999 SCT035
No reported NOTAMs for that airfield.



MET'MAP, your aeronautical weather chart ! - Copyright ORBIFLY December 2007 - Disclaimer

ORBIFLY MET'MAP TEAM :

Programming & Development : Alexandra Zaïnal
Concept & Development : Baudouin d'Aumeries
Co-Development & Prog : Marc-Olivier Méhu
Technical & hardware support : Manuel Goepfert

Contact : metmap@orbifly.com




SOURCES & CREDITS :

   NOAA